KLRO

Mt Pleasant Regional-Faison Field Airport

Mount Pleasant, South Carolina, USA
METAR KLRO 231055Z AUTO 20005KT 6SM BR CLR 24/22 A3011 RMK AO2
Observed Flight Rules
May-23 @ 10:55 UTC (20 minutes ago) Visual Flight Rules
Wind Visibility Clouds Conditions
200° at 5 knots 6 miles
  • Clear skies
  • Mist
Temperatures Readings
Current 24°C / 75°F
Dewpoint 22°C / 72°F
Humidity 89%
Altimeter 30.11" Hg
Pressure 1020 hPa
Elevation 4
METAR KLRO 231055Z AUTO 20005KT 6SM BR CLR 24/22 A3011 RMK AO2
Observed Flight Rules
May-23 @ 10:55 UTC
(20 minutes ago)
VFR
Wind Visibility
200° at 5 knots 6 miles
Clouds
  • Clear skies
Conditions
  • Mist
Temperature Dewpoint
24°C / 75°F 22°C / 72°F
Humidity Altimeter Pressure
89% 30.11" Hg 1020 hPa